Terminal Aerodrome Forecast
Issued by NWS

Home | Current Version | Previous Version | Text Only | Print | Product List | Glossary On
Versions: 1 2 3 4 5 6 7 8 9 10 11 12 13 14 15 16 17 18 19 20 21
544
FTUS43 KIWX 121720
TAFSBN
TAF
KSBN 121720Z 1218/1318 28013G20KT 3SM -SN OVC030
      TEMPO 1218/1219 1SM -SN OVC015
     FM121900 30018G28KT 3SM -SHSN BLSN OVC030
     FM130200 31016G24KT 1SM -SHSN BLSN SCT015 OVC030
     FM130800 30012KT 3SM -SHSN OVC035=

USA.gov is the U.S. government's official web portal to all federal, state and local government web resources and services.